Fruto Da Uniao — CUHI7 — position and weather

sailwx.info

Track history (hours):
 
Tides and Currents Weather Stations Pressure Air Temp Water Temp Dewpoint Dewpoint Depression Visibility Wind Speed Wind Dir Waves Ship Positions

Fruto Da Uniao

Last reported at 2019-Feb-19 15:22 UTC. Time now 2019-Feb-23 01:14 UTC.
Position N 38°50' W 009°41'.

MMSI: 263402650.

Date/timePositionNaut miles runAvg speedWind from/ knotsBaromVisibWave heightAir tempDewpointWater temp
2019-Feb-19 15:22N 38°50' W 009°41'3 7.6
2019-Feb-19 15:01N 38°48' W 009°39'4 0.4
2019-Feb-19 04:48N 38°47' W 009°33'2 8.1
2019-Feb-19 04:30N 38°50' W 009°33'4 8.1
2019-Feb-19 04:00N 38°54' W 009°32'4 8.0
2019-Feb-19 03:30N 38°57' W 009°31'4 7.9
2019-Feb-19 03:00N 39°01' W 009°30'4 7.9
2019-Feb-19 02:30N 39°05' W 009°29'4 7.8
2019-Feb-19 02:00N 39°09' W 009°28'1 0.1
2019-Feb-17 23:51N 39°09' W 009°30'3 8.0
2019-Feb-17 23:30N 39°06' W 009°31'4 8.2
2019-Feb-17 23:00N 39°03' W 009°33'  
2019-Feb-15 12:08N 39°08' W 009°33'1 7.8
2019-Feb-15 12:00N 39°09' W 009°32'4 7.6
2019-Feb-15 11:30N 39°12' W 009°29'4 7.6
2019-Feb-15 11:00N 39°16' W 009°27'4 7.4
2019-Feb-15 10:27N 39°19' W 009°24'3 3.5
2019-Feb-15 09:44N 39°21' W 009°22'0 0.0
2019-Feb-15 09:29N 39°21' W 009°22'0 0.0
2019-Feb-15 08:58N 39°21' W 009°22'0 0.0
2019-Feb-15 08:28N 39°21' W 009°22'0 0.0
2019-Feb-15 07:58N 39°21' W 009°22'14 0.6
2019-Feb-14 08:02N 39°09' W 009°32'2 8.2
2019-Feb-14 07:47N 39°08' W 009°33'6 0.2
2019-Feb-13 00:33N 39°02' W 009°36'0 8.7
2019-Feb-13 00:30N 39°03' W 009°36'4 8.7
2019-Feb-13 00:00N 39°06' W 009°33'4 8.6
2019-Feb-12 23:30N 39°10' W 009°30'4 8.4
2019-Feb-12 23:00N 39°14' W 009°28'9 1.1
2019-Feb-12 15:17N 39°21' W 009°22'11 6.7
2019-Feb-12 13:36N 39°12' W 009°30'2 8.3
2019-Feb-12 13:22N 39°10' W 009°31'3 8.2
2019-Feb-12 13:00N 39°07' W 009°33'18 0.6
2019-Feb-11 06:32N 38°52' W 009°44'0 7.8
2019-Feb-11 06:30N 38°52' W 009°44'4 0.2
2019-Feb-10 11:37N 38°50' W 009°40'0 0.5
2019-Feb-10 11:30N 38°50' W 009°40'0 0.7
2019-Feb-10 11:00N 38°50' W 009°40'0 0.9
2019-Feb-10 10:30N 38°50' W 009°40'1 1.2
2019-Feb-10 10:00N 38°50' W 009°40'1 1.4
2019-Feb-10 09:30N 38°49' W 009°40'1 1.3
2019-Feb-10 09:00N 38°50' W 009°40'1 1.7
2019-Feb-10 08:30N 38°51' W 009°41'0 0.8
2019-Feb-10 08:00N 38°50' W 009°40'1 1.7
2019-Feb-10 07:30N 38°49' W 009°40'1 1.1
2019-Feb-10 07:00N 38°49' W 009°40'1 1.6
2019-Feb-10 06:30N 38°50' W 009°40'1 1.4
2019-Feb-10 06:00N 38°50' W 009°41'  
Track history (hours):
 
Tides and Currents Weather Stations Pressure Air Temp Water Temp Dewpoint Dewpoint Depression Visibility Wind Speed Wind Dir Waves Ship Positions

Fruto Da Uniao

Last reported at 2019-Feb-19 15:22 UTC. Time now 2019-Feb-23 01:14 UTC.
Position N 38°50' W 009°41'.

MMSI: 263402650.

Date/timePositionNaut miles runAvg speedWind from/ knotsBaromVisibWave heightAir tempDewpointWater temp
2019-Feb-19 15:22N 38°50' W 009°41'3 7.6
2019-Feb-19 15:01N 38°48' W 009°39'4 0.4
2019-Feb-19 04:48N 38°47' W 009°33'2 8.1
2019-Feb-19 04:30N 38°50' W 009°33'4 8.1
2019-Feb-19 04:00N 38°54' W 009°32'4 8.0
2019-Feb-19 03:30N 38°57' W 009°31'4 7.9
2019-Feb-19 03:00N 39°01' W 009°30'4 7.9
2019-Feb-19 02:30N 39°05' W 009°29'4 7.8
2019-Feb-19 02:00N 39°09' W 009°28'1 0.1
2019-Feb-17 23:51N 39°09' W 009°30'3 8.0
2019-Feb-17 23:30N 39°06' W 009°31'4 8.2
2019-Feb-17 23:00N 39°03' W 009°33'  
2019-Feb-15 12:08N 39°08' W 009°33'1 7.8
2019-Feb-15 12:00N 39°09' W 009°32'4 7.6
2019-Feb-15 11:30N 39°12' W 009°29'4 7.6
2019-Feb-15 11:00N 39°16' W 009°27'4 7.4
2019-Feb-15 10:27N 39°19' W 009°24'3 3.5
2019-Feb-15 09:44N 39°21' W 009°22'0 0.0
2019-Feb-15 09:29N 39°21' W 009°22'0 0.0
2019-Feb-15 08:58N 39°21' W 009°22'0 0.0
2019-Feb-15 08:28N 39°21' W 009°22'0 0.0
2019-Feb-15 07:58N 39°21' W 009°22'14 0.6
2019-Feb-14 08:02N 39°09' W 009°32'2 8.2
2019-Feb-14 07:47N 39°08' W 009°33'6 0.2
2019-Feb-13 00:33N 39°02' W 009°36'0 8.7
2019-Feb-13 00:30N 39°03' W 009°36'4 8.7
2019-Feb-13 00:00N 39°06' W 009°33'4 8.6
2019-Feb-12 23:30N 39°10' W 009°30'4 8.4
2019-Feb-12 23:00N 39°14' W 009°28'9 1.1
2019-Feb-12 15:17N 39°21' W 009°22'11 6.7
2019-Feb-12 13:36N 39°12' W 009°30'2 8.3
2019-Feb-12 13:22N 39°10' W 009°31'3 8.2
2019-Feb-12 13:00N 39°07' W 009°33'18 0.6
2019-Feb-11 06:32N 38°52' W 009°44'0 7.8
2019-Feb-11 06:30N 38°52' W 009°44'4 0.2
2019-Feb-10 11:37N 38°50' W 009°40'0 0.5
2019-Feb-10 11:30N 38°50' W 009°40'0 0.7
2019-Feb-10 11:00N 38°50' W 009°40'0 0.9
2019-Feb-10 10:30N 38°50' W 009°40'1 1.2
2019-Feb-10 10:00N 38°50' W 009°40'1 1.4
2019-Feb-10 09:30N 38°49' W 009°40'1 1.3
2019-Feb-10 09:00N 38°50' W 009°40'1 1.7
2019-Feb-10 08:30N 38°51' W 009°41'0 0.8
2019-Feb-10 08:00N 38°50' W 009°40'1 1.7
2019-Feb-10 07:30N 38°49' W 009°40'1 1.1
2019-Feb-10 07:00N 38°49' W 009°40'1 1.6
2019-Feb-10 06:30N 38°50' W 009°40'1 1.4
2019-Feb-10 06:00N 38°50' W 009°41'  

Dump ship's entire track history